createdAt,value
2023-02-26T00:04:38.451Z,50.00
2023-02-26T00:09:42.424Z,50.00
2023-02-26T00:14:47.323Z,50.60
2023-02-26T00:19:51.872Z,49.90
2023-02-26T00:24:56.311Z,49.90
2023-02-26T00:30:00.554Z,50.20
2023-02-26T00:35:04.796Z,49.90
2023-02-26T00:40:27.343Z,49.90
2023-02-26T00:45:32.299Z,50.20
2023-02-26T00:50:38.296Z,50.30
2023-02-26T00:55:42.318Z,50.50
2023-02-26T01:00:46.449Z,50.70
2023-02-26T01:05:51.016Z,51.10
2023-02-26T01:10:55.481Z,51.20
2023-02-26T01:16:14.494Z,51.30
2023-02-26T01:21:29.581Z,51.30
2023-02-26T01:26:34.236Z,51.60
2023-02-26T01:31:54.343Z,51.90
2023-02-26T01:37:18.724Z,51.60
2023-02-26T01:42:27.682Z,52.10
2023-02-26T01:47:31.614Z,52.30
2023-02-26T01:52:35.456Z,52.30
2023-02-26T01:57:40.702Z,52.40
2023-02-26T02:02:45.675Z,52.50
2023-02-26T02:07:50.909Z,52.50
2023-02-26T02:13:23.912Z,52.60
2023-02-26T02:18:49.720Z,52.10
2023-02-26T02:24:06.073Z,51.10
2023-02-26T02:29:24.097Z,50.50
2023-02-26T02:34:37.334Z,49.80
2023-02-26T02:39:51.001Z,49.40
2023-02-26T02:45:01.612Z,49.10
2023-02-26T02:50:19.625Z,48.90
2023-02-26T02:55:38.714Z,48.80
2023-02-26T03:00:51.561Z,48.80
2023-02-26T03:05:55.672Z,48.80
2023-02-26T03:11:00.005Z,48.90
2023-02-26T03:16:16.516Z,48.80
2023-02-26T03:21:34.681Z,48.80
2023-02-26T03:27:19.855Z,48.80
2023-02-26T03:32:37.330Z,48.80
2023-02-26T03:37:49.820Z,48.70
2023-02-26T03:43:19.649Z,48.60
2023-02-26T03:48:29.120Z,48.70
2023-02-26T03:53:50.940Z,48.70
2023-02-26T03:58:57.821Z,48.80
2023-02-26T04:04:34.111Z,48.60
2023-02-26T04:09:38.327Z,48.10
2023-02-26T04:14:42.667Z,48.50
2023-02-26T04:19:46.811Z,48.50
2023-02-26T04:24:52.088Z,48.40
2023-02-26T04:29:56.422Z,48.70
2023-02-26T04:35:01.074Z,48.40
2023-02-26T04:40:06.858Z,48.40
2023-02-26T04:45:11.492Z,48.50
2023-02-26T04:50:16.413Z,48.70
2023-02-26T04:55:21.176Z,48.70
2023-02-26T05:00:26.166Z,48.80
2023-02-26T05:05:30.567Z,49.60
2023-02-26T05:10:38.632Z,49.40
2023-02-26T05:15:43.405Z,50.00
2023-02-26T05:20:56.282Z,49.90
2023-02-26T05:26:00.645Z,50.00
2023-02-26T05:31:04.848Z,50.20
2023-02-26T05:36:13.208Z,51.10
2023-02-26T05:41:17.533Z,50.50
2023-02-26T05:46:21.684Z,50.60
2023-02-26T05:51:25.781Z,50.80
2023-02-26T05:56:29.836Z,50.80
2023-02-26T06:01:37.508Z,50.90
2023-02-26T06:06:41.483Z,51.30
2023-02-26T06:11:45.731Z,51.10
2023-02-26T06:16:49.752Z,51.10
2023-02-26T06:21:53.976Z,51.30
2023-02-26T06:26:58.004Z,50.10
2023-02-26T06:32:02.342Z,49.40
2023-02-26T06:37:07.338Z,49.00
2023-02-26T06:42:15.342Z,48.80
2023-02-26T06:47:19.468Z,48.00
2023-02-26T06:52:23.319Z,47.70
2023-02-26T06:57:27.432Z,48.00
2023-02-26T07:02:31.481Z,47.50
2023-02-26T07:07:35.398Z,47.60
2023-02-26T07:12:39.829Z,47.50
2023-02-26T07:17:44.115Z,47.60
2023-02-26T07:22:48.109Z,48.10
2023-02-26T07:27:52.963Z,47.70
2023-02-26T07:32:57.541Z,47.60
2023-02-26T07:38:01.564Z,47.70
2023-02-26T07:43:05.865Z,47.50
2023-02-26T07:48:09.805Z,47.60
2023-02-26T07:53:13.921Z,47.50
2023-02-26T07:58:18.980Z,47.40
2023-02-26T08:03:23.141Z,47.40
2023-02-26T08:08:28.380Z,47.40
2023-02-26T08:13:32.521Z,47.40
2023-02-26T08:18:36.442Z,47.30
2023-02-26T08:23:40.887Z,47.70
2023-02-26T08:28:46.763Z,47.20
2023-02-26T08:33:50.581Z,47.30
2023-02-26T08:38:54.628Z,47.90
2023-02-26T08:44:01.267Z,47.30
2023-02-26T08:49:05.203Z,47.50
2023-02-26T08:54:10.397Z,47.70
2023-02-26T08:59:14.454Z,47.70
2023-02-26T09:04:19.283Z,48.00
2023-02-26T09:09:23.324Z,48.30
2023-02-26T09:14:27.622Z,48.60
2023-02-26T09:19:31.482Z,48.80
2023-02-26T09:24:35.762Z,49.00
2023-02-26T09:29:40.280Z,49.00
2023-02-26T09:34:44.617Z,49.00
2023-02-26T09:39:48.646Z,49.10
2023-02-26T09:44:54.425Z,49.50
2023-02-26T09:50:07.580Z,49.40
2023-02-26T09:55:40.345Z,49.60
2023-02-26T10:01:11.078Z,49.70
2023-02-26T10:06:26.881Z,50.40
2023-02-26T10:11:40.340Z,49.80
2023-02-26T10:16:50.065Z,49.80
2023-02-26T10:22:15.731Z,50.10
2023-02-26T10:27:37.970Z,49.90
2023-02-26T10:33:01.236Z,50.80
2023-02-26T10:38:19.294Z,50.00
2023-02-26T10:43:41.065Z,49.90
2023-02-26T10:49:04.416Z,48.90
2023-02-26T10:54:17.922Z,48.30
2023-02-26T10:59:23.022Z,47.40
2023-02-26T11:04:28.158Z,47.30
2023-02-26T11:09:39.160Z,47.00
2023-02-26T11:14:44.517Z,46.90
2023-02-26T11:19:58.590Z,47.10
2023-02-26T11:25:04.850Z,46.80
2023-02-26T11:30:21.039Z,46.70
2023-02-26T11:35:27.876Z,47.00
2023-02-26T11:40:42.504Z,46.60
2023-02-26T11:45:52.840Z,46.60
2023-02-26T11:51:03.879Z,46.60
2023-02-26T11:56:19.944Z,46.50
2023-02-26T12:01:29.743Z,46.50
2023-02-26T12:06:33.815Z,46.30
2023-02-26T12:11:49.816Z,46.40
2023-02-26T12:17:23.536Z,46.40
2023-02-26T12:22:41.937Z,46.20
2023-02-26T12:28:16.929Z,46.20
2023-02-26T12:34:12.847Z,45.90
2023-02-26T12:39:31.620Z,46.40
2023-02-26T12:45:02.776Z,46.60
2023-02-26T12:50:46.611Z,46.90
2023-02-26T12:56:02.112Z,47.30
2023-02-26T13:01:13.718Z,47.30
2023-02-26T13:06:24.191Z,47.50
2023-02-26T13:11:45.110Z,48.00
2023-02-26T13:17:04.893Z,47.90
2023-02-26T13:22:29.229Z,48.30
2023-02-26T13:27:38.370Z,48.30
2023-02-26T13:32:44.971Z,48.10
2023-02-26T13:38:00.435Z,48.20
2023-02-26T13:43:22.172Z,47.90
2023-02-26T13:48:49.491Z,48.40
2023-02-26T13:54:00.302Z,48.70
2023-02-26T13:59:18.816Z,49.30
2023-02-26T14:04:29.697Z,49.00
2023-02-26T14:09:48.858Z,48.90
2023-02-26T14:15:00.593Z,48.60
2023-02-26T14:20:20.045Z,48.50
2023-02-26T14:25:37.489Z,48.90
2023-02-26T14:30:50.887Z,49.00
2023-02-26T14:35:59.971Z,49.10
2023-02-26T14:41:19.623Z,49.20
2023-02-26T14:46:26.437Z,49.60
2023-02-26T14:51:41.936Z,49.10
2023-02-26T14:57:17.425Z,49.20
2023-02-26T15:02:43.350Z,49.30
2023-02-26T15:08:05.218Z,49.20
2023-02-26T15:13:32.310Z,49.30
2023-02-26T15:18:53.665Z,48.10
2023-02-26T15:24:02.206Z,47.70
2023-02-26T15:29:12.607Z,46.80
2023-02-26T15:34:18.366Z,46.60
2023-02-26T15:39:25.458Z,46.40
2023-02-26T15:44:37.048Z,46.10
2023-02-26T15:49:48.217Z,46.10
2023-02-26T15:55:02.411Z,46.00
2023-02-26T16:00:19.425Z,46.30
2023-02-26T16:05:28.635Z,45.90
2023-02-26T16:10:42.467Z,46.20
2023-02-26T16:15:49.979Z,45.90
2023-02-26T16:21:02.158Z,46.00
2023-02-26T16:26:33.116Z,46.00
2023-02-26T16:31:50.556Z,46.00
2023-02-26T16:36:58.091Z,45.90
2023-02-26T16:42:34.948Z,45.90
2023-02-26T16:47:42.369Z,46.00
2023-02-26T16:53:20.420Z,46.10
2023-02-26T16:58:28.075Z,46.00
2023-02-26T17:03:34.606Z,45.90
2023-02-26T17:08:51.179Z,46.30
2023-02-26T17:14:26.628Z,45.90
2023-02-26T17:19:33.105Z,45.80
2023-02-26T17:24:53.218Z,45.90
2023-02-26T17:30:01.356Z,45.80
2023-02-26T17:35:14.448Z,45.90
2023-02-26T17:40:27.195Z,45.90
2023-02-26T17:45:34.662Z,46.40
2023-02-26T17:50:56.223Z,46.60
2023-02-26T17:56:03.549Z,46.50
2023-02-26T18:01:11.254Z,46.70
2023-02-26T18:06:18.454Z,47.10
2023-02-26T18:11:27.060Z,47.70
2023-02-26T18:16:38.071Z,47.50
2023-02-26T18:21:45.096Z,47.50
2023-02-26T18:26:52.581Z,47.60
2023-02-26T18:32:01.021Z,47.80
2023-02-26T18:37:08.443Z,48.00
2023-02-26T18:42:26.354Z,48.50
2023-02-26T18:47:34.725Z,48.10
2023-02-26T18:52:41.559Z,48.20
2023-02-26T18:57:48.297Z,48.30
2023-02-26T19:02:56.501Z,48.10
2023-02-26T19:08:18.794Z,48.10
2023-02-26T19:13:30.694Z,47.90
2023-02-26T19:24:07.923Z,48.50
2023-02-26T19:29:27.648Z,48.00
2023-02-26T19:34:38.322Z,48.10
2023-02-26T19:39:45.123Z,47.80
2023-02-26T19:44:50.773Z,47.60
2023-02-26T19:49:58.004Z,47.90
2023-02-26T19:55:08.315Z,46.40
2023-02-26T20:00:17.523Z,46.80
2023-02-26T20:05:23.680Z,45.20
2023-02-26T20:10:34.200Z,45.00
2023-02-26T20:15:41.928Z,45.60
2023-02-26T20:20:50.039Z,46.40
2023-02-26T20:25:59.225Z,46.10
2023-02-26T20:31:05.931Z,45.30
2023-02-26T20:36:12.585Z,45.00
2023-02-26T20:41:18.616Z,44.80
2023-02-26T20:46:25.528Z,45.10
2023-02-26T20:51:33.890Z,44.40
2023-02-26T20:56:40.179Z,44.20
2023-02-26T21:01:46.985Z,44.10
2023-02-26T21:06:53.647Z,44.00
2023-02-26T21:12:01.017Z,44.30
2023-02-26T21:17:10.834Z,46.30
2023-02-26T21:22:22.003Z,46.90
2023-02-26T21:27:29.914Z,46.80
2023-02-26T21:32:35.353Z,46.80
2023-02-26T21:37:40.281Z,47.20
2023-02-26T21:42:47.056Z,47.40
2023-02-26T21:47:56.733Z,47.30
2023-02-26T21:53:04.222Z,47.10
2023-02-26T21:58:09.604Z,47.00
2023-02-26T22:03:13.816Z,51.50
2023-02-26T22:08:18.271Z,50.00
2023-02-26T22:13:22.308Z,50.10
2023-02-26T22:18:26.342Z,50.50
2023-02-26T22:23:30.252Z,50.40
2023-02-26T22:28:34.187Z,50.60
2023-02-26T22:33:38.327Z,51.00
2023-02-26T22:38:42.130Z,51.10
2023-02-26T22:43:46.094Z,51.60
2023-02-26T22:48:50.214Z,51.60
2023-02-26T22:53:53.964Z,51.70
2023-02-26T22:58:57.981Z,51.90
2023-02-26T23:04:01.904Z,51.90
2023-02-26T23:09:06.348Z,51.90
2023-02-26T23:14:10.196Z,52.10
2023-02-26T23:19:14.127Z,52.30
2023-02-26T23:24:18.256Z,51.80
2023-02-26T23:29:23.746Z,51.60
2023-02-26T23:34:28.986Z,51.70
2023-02-26T23:39:33.426Z,51.60
2023-02-26T23:44:37.233Z,51.80
2023-02-26T23:49:41.281Z,52.20
2023-02-26T23:54:45.296Z,52.30
2023-02-26T23:59:49.048Z,52.30
